Time;durP1;ratioP1;P1;durP2;ratioP2;P2;SDS_P1;SDS_P2;PMS_P1;PMS_P2;Temp;Humidity;BMP_temperature;BMP_pressure;BME280_temperature;BME280_humidity;BME280_pressure;Samples;Min_cycle;Max_cycle;Signal;HPM_P1;HPM_P2
2021/08/31 00:01:20;;;;;;;5.43;4.03;;;16.30;99.90;;;;;;5090530;28;20032;-64
2021/08/31 00:03:46;;;;;;;4.70;4.05;;;16.30;99.90;;;;;;5090936;28;20024;-64
2021/08/31 00:06:12;;;;;;;5.18;4.47;;;16.30;99.90;;;;;;5090448;28;20055;-64
2021/08/31 00:08:37;;;;;;;8.63;5.10;;;16.30;99.90;;;;;;5089667;28;20016;-64
2021/08/31 00:11:03;;;;;;;7.68;4.80;;;16.30;99.90;;;;;;5090374;28;20028;-62
2021/08/31 00:13:28;;;;;;;5.15;4.50;;;16.40;99.90;;;;;;5089563;28;20028;-62
2021/08/31 00:15:54;;;;;;;6.30;4.60;;;16.30;99.90;;;;;;5089525;28;20028;-63
2021/08/31 00:18:19;;;;;;;5.50;4.78;;;16.20;99.90;;;;;;5090439;28;20461;-63
2021/08/31 00:20:45;;;;;;;5.60;3.97;;;16.30;99.90;;;;;;5091547;28;20101;-63
2021/08/31 00:23:12;;;;;;;7.13;4.28;;;16.10;99.90;;;;;;5090606;28;20052;-64
2021/08/31 00:25:37;;;;;;;4.97;4.28;;;16.10;99.90;;;;;;5091165;28;20016;-63
2021/08/31 00:28:03;;;;;;;5.50;4.90;;;16.20;99.90;;;;;;5090506;28;20031;-65
2021/08/31 00:30:29;;;;;;;5.53;4.53;;;16.10;99.90;;;;;;5089455;28;20024;-63
2021/08/31 00:32:54;;;;;;;4.97;3.85;;;16.10;99.90;;;;;;5090881;28;20032;-63
2021/08/31 00:35:20;;;;;;;5.13;3.80;;;16.20;99.90;;;;;;5090173;28;20320;-63
2021/08/31 00:37:46;;;;;;;5.35;4.70;;;16.20;99.90;;;;;;5089808;28;20111;-63
2021/08/31 00:40:12;;;;;;;6.85;4.68;;;16.20;99.90;;;;;;5093059;28;20137;-63
2021/08/31 00:42:37;;;;;;;6.90;4.75;;;16.20;99.90;;;;;;5094690;28;20024;-64
2021/08/31 00:45:03;;;;;;;6.72;5.45;;;16.20;99.90;;;;;;5093945;28;20163;-63
2021/08/31 00:47:29;;;;;;;9.98;4.72;;;16.20;99.90;;;;;;5094448;28;20390;-63
2021/08/31 00:49:54;;;;;;;5.55;4.90;;;16.10;99.90;;;;;;5093027;28;20362;-63
2021/08/31 00:52:20;;;;;;;5.72;4.68;;;16.10;99.90;;;;;;5094004;28;20036;-63
2021/08/31 00:54:46;;;;;;;5.55;4.65;;;16.20;99.90;;;;;;5094514;28;20030;-63
2021/08/31 00:57:13;;;;;;;5.95;5.00;;;16.00;99.90;;;;;;5093915;28;20044;-63
2021/08/31 00:59:39;;;;;;;9.32;5.07;;;15.90;99.90;;;;;;5092685;28;20077;-63
2021/08/31 01:02:04;;;;;;;7.30;4.18;;;15.90;99.90;;;;;;5092430;28;20028;-64
2021/08/31 01:04:31;;;;;;;13.95;6.45;;;15.90;99.90;;;;;;5094136;28;20031;-63
2021/08/31 01:06:58;;;;;;;5.80;4.65;;;16.00;99.90;;;;;;5092866;28;20035;-63
2021/08/31 01:09:25;;;;;;;6.22;5.20;;;15.90;99.90;;;;;;5093358;28;20051;-63
2021/08/31 01:11:52;;;;;;;7.43;4.80;;;15.90;99.90;;;;;;5092856;28;20062;-63
2021/08/31 01:14:18;;;;;;;7.55;5.00;;;15.90;99.90;;;;;;5093319;28;20027;-63
2021/08/31 01:16:44;;;;;;;4.90;4.45;;;15.80;99.90;;;;;;5093767;28;20174;-63
2021/08/31 01:19:11;;;;;;;7.70;4.75;;;15.80;99.90;;;;;;5093428;28;20032;-63
2021/08/31 01:21:37;;;;;;;7.93;4.55;;;15.80;99.90;;;;;;5092302;28;20027;-64
2021/08/31 01:24:03;;;;;;;5.65;4.75;;;15.80;99.90;;;;;;5094053;28;20496;-63
2021/08/31 01:26:29;;;;;;;9.68;4.65;;;15.80;99.90;;;;;;5093939;28;20028;-63
2021/08/31 01:28:55;;;;;;;9.38;4.80;;;15.80;99.90;;;;;;5093533;28;20024;-63
2021/08/31 01:31:21;;;;;;;7.93;5.55;;;15.80;99.90;;;;;;5093237;28;20092;-63
2021/08/31 01:33:47;;;;;;;6.13;5.28;;;15.70;99.90;;;;;;5092168;28;20024;-62
2021/08/31 01:36:20;;;;;;;5.85;4.95;;;15.70;99.90;;;;;;5091625;28;20032;-63
2021/08/31 01:38:47;;;;;;;5.72;4.80;;;15.70;99.90;;;;;;5093622;28;20024;-64
2021/08/31 01:41:13;;;;;;;5.43;4.93;;;15.80;99.90;;;;;;5092882;28;20028;-64
2021/08/31 01:43:38;;;;;;;8.48;4.60;;;15.80;99.90;;;;;;5091985;28;20360;-64
2021/08/31 01:46:04;;;;;;;4.70;4.15;;;15.80;99.90;;;;;;5092186;28;20028;-63
2021/08/31 01:48:30;;;;;;;6.72;5.38;;;15.80;99.90;;;;;;5091925;28;20024;-63
2021/08/31 01:50:56;;;;;;;7.65;5.40;;;15.70;99.90;;;;;;5081460;28;20096;-63
2021/08/31 01:53:22;;;;;;;7.60;5.18;;;15.70;99.90;;;;;;5074028;28;20028;-64
2021/08/31 01:55:47;;;;;;;6.28;4.85;;;15.70;99.90;;;;;;5073781;28;20031;-63
2021/08/31 01:58:13;;;;;;;6.07;4.30;;;15.70;99.90;;;;;;5070939;28;20025;-63
2021/08/31 02:00:38;;;;;;;5.65;5.05;;;15.70;99.90;;;;;;5073004;28;20111;-63
2021/08/31 02:03:04;;;;;;;5.22;4.30;;;15.70;99.90;;;;;;5072437;28;20033;-63
2021/08/31 02:05:30;;;;;;;6.85;5.20;;;15.70;99.90;;;;;;5070706;28;20029;-63
2021/08/31 02:07:56;;;;;;;6.53;5.13;;;15.70;99.90;;;;;;5070969;28;20088;-63
2021/08/31 02:10:22;;;;;;;5.13;4.20;;;15.70;99.90;;;;;;5071703;28;20024;-63
2021/08/31 02:12:48;;;;;;;6.93;4.80;;;15.60;99.90;;;;;;5071116;28;20059;-63
2021/08/31 02:15:14;;;;;;;5.80;4.63;;;15.60;99.90;;;;;;5071923;28;20040;-64
2021/08/31 02:17:40;;;;;;;7.30;4.93;;;15.50;99.90;;;;;;5072397;28;20028;-64
2021/08/31 02:20:07;;;;;;;5.82;5.13;;;15.60;99.90;;;;;;5071000;28;20027;-64
2021/08/31 02:22:33;;;;;;;5.82;4.82;;;15.60;99.90;;;;;;5072677;28;20052;-64
2021/08/31 02:24:58;;;;;;;5.68;5.07;;;15.60;99.90;;;;;;5072215;28;20359;-63
2021/08/31 02:27:24;;;;;;;8.10;4.28;;;15.60;99.90;;;;;;5071713;28;20422;-63
2021/08/31 02:29:49;;;;;;;7.45;4.90;;;15.60;99.90;;;;;;5072430;28;20040;-65
2021/08/31 02:32:15;;;;;;;5.70;5.05;;;15.50;99.90;;;;;;5071531;28;20028;-64
2021/08/31 02:34:41;;;;;;;6.80;5.00;;;15.50;99.90;;;;;;5072080;28;20036;-63
2021/08/31 02:37:07;;;;;;;6.53;4.78;;;15.50;99.90;;;;;;5072178;28;20025;-63
2021/08/31 02:39:33;;;;;;;6.82;4.57;;;15.50;99.90;;;;;;5071535;28;20020;-63
2021/08/31 02:41:58;;;;;;;7.63;4.68;;;15.50;99.90;;;;;;5070884;28;20033;-63
2021/08/31 02:44:24;;;;;;;7.05;5.53;;;15.50;99.90;;;;;;5070463;28;20549;-64
2021/08/31 02:46:49;;;;;;;7.57;5.38;;;15.40;99.90;;;;;;5070488;28;20029;-64
2021/08/31 02:49:15;;;;;;;8.10;5.20;;;15.50;99.90;;;;;;5070168;28;20115;-64
2021/08/31 02:51:41;;;;;;;5.20;4.53;;;15.40;99.90;;;;;;5071419;28;20494;-64
2021/08/31 02:54:07;;;;;;;6.90;5.28;;;15.40;99.90;;;;;;5071313;28;20056;-63
2021/08/31 02:56:33;;;;;;;7.20;5.53;;;15.40;99.90;;;;;;5070707;28;20517;-63
2021/08/31 02:58:58;;;;;;;4.95;4.30;;;15.40;99.90;;;;;;5070158;28;20119;-63
2021/08/31 03:01:34;;;;;;;5.55;4.50;;;15.40;99.90;;;;;;5070867;28;20308;-63
2021/08/31 03:04:02;;;;;;;6.57;4.80;;;15.40;99.90;;;;;;5070657;28;20060;-63
2021/08/31 03:06:28;;;;;;;5.82;5.07;;;15.30;99.90;;;;;;5069402;28;20472;-63
2021/08/31 03:08:54;;;;;;;6.03;4.35;;;15.30;99.90;;;;;;5071683;28;20116;-63
2021/08/31 03:11:20;;;;;;;5.75;4.63;;;15.30;99.90;;;;;;5070842;28;20032;-64
2021/08/31 03:13:46;;;;;;;5.97;5.13;;;15.40;99.90;;;;;;5071246;28;20035;-63
2021/08/31 03:16:11;;;;;;;6.72;4.78;;;15.40;99.90;;;;;;5070355;28;20028;-64
2021/08/31 03:18:37;;;;;;;11.68;6.63;;;15.30;99.90;;;;;;5071221;28;20458;-63
2021/08/31 03:21:03;;;;;;;8.00;5.18;;;15.30;99.90;;;;;;5071318;28;20024;-63
2021/08/31 03:23:28;;;;;;;8.07;5.10;;;15.30;99.90;;;;;;5070341;28;20057;-63
2021/08/31 03:25:54;;;;;;;8.25;5.20;;;15.40;99.90;;;;;;5070926;28;20078;-63
2021/08/31 03:28:19;;;;;;;4.97;4.47;;;15.40;99.90;;;;;;5069034;28;20181;-63
2021/08/31 03:30:45;;;;;;;5.78;4.72;;;15.40;99.90;;;;;;5071036;28;20020;-63
2021/08/31 03:33:11;;;;;;;7.18;5.05;;;15.40;99.90;;;;;;5070630;28;20028;-78
2021/08/31 03:35:37;;;;;;;7.95;5.35;;;15.50;99.90;;;;;;5070615;28;20029;-63
2021/08/31 03:38:03;;;;;;;13.20;5.70;;;15.50;99.90;;;;;;5071214;28;20033;-63
2021/08/31 03:40:28;;;;;;;7.60;5.00;;;15.50;99.90;;;;;;5070587;28;20032;-63
2021/08/31 03:42:54;;;;;;;7.05;5.63;;;15.50;99.90;;;;;;5069649;28;20035;-63
2021/08/31 03:45:19;;;;;;;5.47;4.57;;;15.60;99.90;;;;;;5070440;28;20029;-63
2021/08/31 03:47:45;;;;;;;6.88;4.88;;;15.50;99.90;;;;;;5070594;28;20035;-63
2021/08/31 03:50:11;;;;;;;6.07;4.88;;;15.50;99.90;;;;;;5069371;28;20040;-62
2021/08/31 03:52:37;;;;;;;6.10;5.05;;;15.50;99.90;;;;;;5070519;28;20029;-63
2021/08/31 03:55:04;;;;;;;9.65;5.10;;;15.50;99.90;;;;;;5070959;28;20028;-64
2021/08/31 03:57:29;;;;;;;6.03;5.43;;;15.50;99.90;;;;;;5068661;28;20067;-63
2021/08/31 03:59:55;;;;;;;5.97;5.20;;;15.50;99.90;;;;;;5070686;28;20028;-62
2021/08/31 04:02:22;;;;;;;6.80;5.50;;;15.60;99.90;;;;;;5069714;28;20466;-63
2021/08/31 04:04:48;;;;;;;7.30;5.43;;;15.60;99.90;;;;;;5070518;28;20043;-63
2021/08/31 04:07:14;;;;;;;7.65;5.03;;;15.60;99.90;;;;;;5070153;28;20056;-69
2021/08/31 04:09:40;;;;;;;8.35;5.65;;;15.60;99.90;;;;;;5070594;28;20154;-63
2021/08/31 04:12:06;;;;;;;8.27;5.45;;;15.60;99.90;;;;;;5070692;28;20304;-62
2021/08/31 04:14:33;;;;;;;9.60;5.63;;;15.60;99.90;;;;;;5071368;28;20333;-62
2021/08/31 04:16:58;;;;;;;6.88;5.32;;;15.60;99.90;;;;;;5074679;28;20060;-63
2021/08/31 04:19:24;;;;;;;7.55;4.60;;;15.60;99.90;;;;;;5072722;28;20048;-63
2021/08/31 04:21:50;;;;;;;8.05;5.40;;;15.60;99.90;;;;;;5073144;28;20496;-63
2021/08/31 04:24:15;;;;;;;6.43;5.70;;;15.60;99.90;;;;;;5072641;28;20037;-63
2021/08/31 04:26:41;;;;;;;5.38;4.85;;;15.70;99.90;;;;;;5072991;28;20024;-62
2021/08/31 04:29:07;;;;;;;11.57;6.45;;;15.70;99.90;;;;;;5074414;28;20369;-63
2021/08/31 04:31:32;;;;;;;9.15;5.30;;;15.70;99.90;;;;;;5073698;28;20373;-63
2021/08/31 04:33:58;;;;;;;6.88;5.40;;;15.70;99.90;;;;;;5074390;28;20029;-63
2021/08/31 04:36:24;;;;;;;6.28;4.95;;;15.80;99.90;;;;;;5072376;28;20025;-63
2021/08/31 04:38:49;;;;;;;9.95;6.00;;;15.80;99.90;;;;;;5073801;28;20032;-62
2021/08/31 04:41:15;;;;;;;14.65;5.38;;;15.80;99.90;;;;;;5073681;28;20104;-76
2021/08/31 04:43:41;;;;;;;5.45;4.72;;;15.80;99.90;;;;;;5074275;28;20059;-63
2021/08/31 04:46:06;;;;;;;7.80;5.40;;;15.80;99.90;;;;;;5074225;28;20381;-63
2021/08/31 04:48:32;;;;;;;7.43;5.57;;;15.80;99.90;;;;;;5073529;28;20021;-63
2021/08/31 04:50:58;;;;;;;6.28;5.18;;;15.70;99.90;;;;;;5072473;28;20036;-63
2021/08/31 04:53:23;;;;;;;8.85;6.90;;;15.70;99.90;;;;;;5073109;28;20060;-63
2021/08/31 04:55:49;;;;;;;5.60;4.95;;;15.60;99.90;;;;;;5074041;28;20149;-63
2021/08/31 04:58:16;;;;;;;6.82;6.10;;;15.60;99.90;;;;;;5073912;28;20036;-64
2021/08/31 05:00:41;;;;;;;7.88;5.30;;;15.70;99.90;;;;;;5073199;28;20113;-64
2021/08/31 05:03:07;;;;;;;19.52;5.82;;;15.70;99.90;;;;;;5074209;28;20440;-64
2021/08/31 05:05:32;;;;;;;6.03;5.15;;;15.60;99.90;;;;;;5071709;28;20024;-63
2021/08/31 05:07:58;;;;;;;8.40;5.90;;;15.50;99.90;;;;;;5073839;28;20044;-62
2021/08/31 05:10:24;;;;;;;15.45;5.57;;;15.60;99.90;;;;;;5073067;28;20338;-63
2021/08/31 05:12:50;;;;;;;13.15;5.63;;;15.60;99.90;;;;;;5073502;28;20044;-63
2021/08/31 05:15:16;;;;;;;7.22;5.38;;;15.60;99.90;;;;;;5073306;28;20036;-62
2021/08/31 05:17:42;;;;;;;7.18;5.43;;;15.60;99.90;;;;;;5071395;28;20124;-62
2021/08/31 05:20:09;;;;;;;10.75;5.78;;;15.70;99.90;;;;;;5072254;28;20071;-64
2021/08/31 05:22:35;;;;;;;5.50;4.93;;;15.70;99.90;;;;;;5073200;28;20498;-64
2021/08/31 05:25:02;;;;;;;8.00;5.30;;;15.70;99.90;;;;;;5071820;28;20029;-62
2021/08/31 05:27:28;;;;;;;10.32;5.70;;;15.70;99.90;;;;;;5072346;28;20021;-63
2021/08/31 05:29:55;;;;;;;7.32;5.90;;;15.70;99.90;;;;;;5071603;28;20241;-63
2021/08/31 05:32:21;;;;;;;11.25;6.00;;;15.60;99.90;;;;;;5070846;28;20055;-64
2021/08/31 05:34:47;;;;;;;8.18;5.10;;;15.60;99.90;;;;;;5072944;28;20040;-63
2021/08/31 05:37:13;;;;;;;5.97;4.78;;;15.60;99.90;;;;;;5072804;28;20023;-64
2021/08/31 05:39:39;;;;;;;6.93;5.65;;;15.50;99.90;;;;;;5071054;28;20410;-63
2021/08/31 05:42:06;;;;;;;8.27;6.13;;;15.60;99.90;;;;;;5071695;28;20111;-64
2021/08/31 05:44:34;;;;;;;12.30;5.32;;;15.60;99.90;;;;;;5072724;28;20033;-63
2021/08/31 05:47:00;;;;;;;9.38;5.63;;;15.60;99.90;;;;;;5072371;28;20036;-63
2021/08/31 05:49:26;;;;;;;7.78;5.40;;;15.80;99.90;;;;;;5071923;28;20135;-63
2021/08/31 05:51:53;;;;;;;6.18;5.18;;;15.80;99.90;;;;;;5072321;28;20144;-63
2021/08/31 05:54:25;;;;;;;7.63;5.25;;;15.70;99.90;;;;;;5071193;28;20041;-64
2021/08/31 05:56:51;;;;;;;6.85;4.75;;;15.80;99.90;;;;;;5071203;28;20048;-63
2021/08/31 05:59:16;;;;;;;7.03;5.65;;;15.80;99.90;;;;;;5072665;28;20171;-63
2021/08/31 06:01:44;;;;;;;6.65;5.80;;;15.80;99.90;;;;;;5070609;28;20036;-63
2021/08/31 06:04:13;;;;;;;6.25;5.25;;;15.80;99.90;;;;;;5071230;28;20461;-64
2021/08/31 06:06:39;;;;;;;9.07;5.15;;;15.90;99.90;;;;;;5071506;28;20372;-64
2021/08/31 06:09:06;;;;;;;9.07;5.90;;;15.90;99.90;;;;;;5070670;28;20024;-64
2021/08/31 06:11:36;;;;;;;12.07;5.53;;;15.90;99.90;;;;;;5071427;28;20078;-64
2021/08/31 06:14:02;;;;;;;7.88;5.68;;;16.10;99.90;;;;;;5071837;28;20025;-64
2021/08/31 06:16:28;;;;;;;10.80;6.20;;;16.20;99.90;;;;;;5071401;28;20024;-63
2021/08/31 06:18:53;;;;;;;7.97;6.00;;;16.30;99.90;;;;;;5070863;28;20429;-64
2021/08/31 06:21:19;;;;;;;14.80;6.60;;;16.40;99.90;;;;;;5070728;28;20021;-63
2021/08/31 06:23:45;;;;;;;9.95;6.05;;;16.60;99.90;;;;;;5069641;28;20475;-64
2021/08/31 06:26:10;;;;;;;8.80;5.93;;;16.70;99.90;;;;;;5071495;28;20047;-64
2021/08/31 06:28:36;;;;;;;11.00;5.47;;;16.70;99.90;;;;;;5070060;28;20386;-64
2021/08/31 06:31:02;;;;;;;15.23;5.30;;;16.70;99.90;;;;;;5071349;28;20077;-64
2021/08/31 06:33:27;;;;;;;7.78;4.80;;;16.90;99.90;;;;;;5069387;28;20040;-63
2021/08/31 06:35:53;;;;;;;9.80;5.32;;;17.20;99.90;;;;;;5072033;28;20458;-64
2021/08/31 06:38:19;;;;;;;10.23;4.90;;;17.20;99.90;;;;;;5071046;28;20389;-63
2021/08/31 06:40:45;;;;;;;6.68;4.88;;;17.30;99.90;;;;;;5070598;28;20470;-63
2021/08/31 06:43:10;;;;;;;5.70;4.43;;;17.50;99.90;;;;;;5070883;28;20033;-63
2021/08/31 06:45:37;;;;;;;8.90;5.57;;;17.60;99.90;;;;;;5070185;28;20439;-64
2021/08/31 06:48:02;;;;;;;8.88;5.07;;;17.60;99.90;;;;;;5069198;28;20021;-62
2021/08/31 06:50:28;;;;;;;11.70;5.10;;;17.70;99.90;;;;;;5069395;28;20095;-64
2021/08/31 06:52:55;;;;;;;11.00;4.88;;;17.70;99.90;;;;;;5070792;28;20119;-64
2021/08/31 06:55:21;;;;;;;8.30;5.55;;;17.80;99.90;;;;;;5070895;28;20028;-64
2021/08/31 06:57:46;;;;;;;9.07;4.57;;;17.90;99.90;;;;;;5069209;28;20090;-64
2021/08/31 07:00:12;;;;;;;10.70;5.47;;;17.90;99.90;;;;;;5069800;28;20354;-64
2021/08/31 07:02:38;;;;;;;16.42;4.68;;;17.80;99.90;;;;;;5069103;28;20025;-64
2021/08/31 07:05:05;;;;;;;7.10;4.72;;;17.90;99.90;;;;;;5069872;28;20028;-64
2021/08/31 07:07:30;;;;;;;7.57;4.45;;;18.00;99.90;;;;;;5069210;28;20032;-64
2021/08/31 07:09:56;;;;;;;5.50;4.70;;;18.10;99.90;;;;;;5071448;28;20108;-64
2021/08/31 07:12:22;;;;;;;6.50;4.72;;;18.00;99.90;;;;;;5072265;28;20024;-65
2021/08/31 07:14:48;;;;;;;8.45;4.90;;;18.00;99.90;;;;;;5077935;28;20036;-64
2021/08/31 07:17:15;;;;;;;8.52;4.03;;;18.10;99.90;;;;;;5069736;28;20029;-70
2021/08/31 07:19:40;;;;;;;6.32;4.15;;;18.20;99.90;;;;;;5070413;28;20116;-70
2021/08/31 07:22:06;;;;;;;6.90;4.10;;;18.30;99.90;;;;;;5070567;28;20445;-71
2021/08/31 07:24:32;;;;;;;7.05;4.28;;;18.20;99.90;;;;;;5070165;28;20028;-62
2021/08/31 07:26:57;;;;;;;9.55;4.45;;;18.30;99.90;;;;;;5069165;28;20040;-63
2021/08/31 07:29:23;;;;;;;7.28;4.93;;;18.20;99.90;;;;;;5070682;28;20056;-63
2021/08/31 07:31:51;;;;;;;8.10;4.10;;;18.20;99.90;;;;;;5069501;28;20031;-62
2021/08/31 07:34:17;;;;;;;7.13;4.00;;;18.20;99.90;;;;;;5070441;28;20123;-66
2021/08/31 07:36:43;;;;;;;12.23;4.60;;;18.30;99.90;;;;;;5068484;28;20474;-64
2021/08/31 07:39:09;;;;;;;9.27;4.35;;;18.40;99.90;;;;;;5070216;28;20021;-66
2021/08/31 07:41:34;;;;;;;6.05;4.40;;;18.40;99.90;;;;;;5068322;28;20097;-65
2021/08/31 07:44:01;;;;;;;14.73;4.70;;;18.60;99.90;;;;;;5068579;28;20080;-65
2021/08/31 07:46:27;;;;;;;9.65;4.80;;;18.90;99.90;;;;;;5068802;28;20078;-72
2021/08/31 07:48:53;;;;;;;5.68;5.03;;;19.00;99.90;;;;;;5067441;28;20029;-66
2021/08/31 07:51:19;;;;;;;8.15;4.57;;;19.10;99.90;;;;;;5070182;28;20431;-66
2021/08/31 07:53:44;;;;;;;9.02;4.90;;;19.40;99.90;;;;;;5069638;28;20036;-66
2021/08/31 07:56:10;;;;;;;6.72;4.00;;;19.70;99.90;;;;;;5068446;28;20098;-66
2021/08/31 07:58:36;;;;;;;9.30;4.28;;;19.70;99.90;;;;;;5069197;28;20036;-67
2021/08/31 08:01:03;;;;;;;6.97;3.72;;;19.80;99.90;;;;;;5070578;28;20051;-66
2021/08/31 08:03:29;;;;;;;6.25;3.70;;;20.00;99.90;;;;;;5069991;28;20029;-68
2021/08/31 08:05:55;;;;;;;5.60;4.22;;;20.50;99.90;;;;;;5070252;28;20025;-67
2021/08/31 08:08:21;;;;;;;12.95;3.92;;;20.90;99.90;;;;;;5069998;28;20359;-65
2021/08/31 08:10:47;;;;;;;6.18;3.70;;;21.10;99.90;;;;;;5082121;28;20035;-67
2021/08/31 08:13:13;;;;;;;11.38;4.80;;;21.50;99.90;;;;;;5087748;28;20434;-67
2021/08/31 08:15:38;;;;;;;3.70;3.25;;;21.70;99.90;;;;;;5085707;28;20023;-66
2021/08/31 08:18:04;;;;;;;7.45;3.58;;;21.60;99.90;;;;;;5087639;28;20063;-67
2021/08/31 08:20:30;;;;;;;9.93;3.75;;;21.80;99.90;;;;;;5087582;28;20046;-67
2021/08/31 08:22:56;;;;;;;5.47;3.35;;;21.90;99.90;;;;;;5088335;28;20048;-63
2021/08/31 08:25:23;;;;;;;6.95;3.78;;;21.80;99.90;;;;;;5089311;28;20028;-62
2021/08/31 08:27:48;;;;;;;8.88;3.50;;;21.80;99.90;;;;;;5088084;28;20035;-63
2021/08/31 08:30:14;;;;;;;5.68;3.83;;;21.90;99.90;;;;;;5089597;28;20030;-63
2021/08/31 08:32:40;;;;;;;4.80;3.85;;;21.80;99.90;;;;;;5079814;28;20435;-62
2021/08/31 08:35:07;;;;;;;10.15;4.05;;;21.60;99.90;;;;;;5068392;28;20028;-62
2021/08/31 08:37:33;;;;;;;5.20;3.17;;;21.70;99.90;;;;;;5066393;28;20351;-63
2021/08/31 08:39:59;;;;;;;4.45;3.25;;;22.10;99.90;;;;;;5067969;28;20033;-61
2021/08/31 08:42:25;;;;;;;7.18;4.00;;;22.20;99.90;;;;;;5067021;28;20082;-64
2021/08/31 08:44:50;;;;;;;9.77;3.15;;;22.40;99.90;;;;;;5066813;28;20032;-65
2021/08/31 08:47:16;;;;;;;4.97;3.63;;;22.50;99.60;;;;;;5067835;28;20040;-64
2021/08/31 08:49:46;;;;;;;9.10;3.00;;;22.70;99.30;;;;;;5069399;28;20111;-64
2021/08/31 08:52:12;;;;;;;6.50;3.28;;;23.10;99.00;;;;;;5081971;28;20079;-66
2021/08/31 08:54:40;;;;;;;5.68;4.07;;;23.00;98.30;;;;;;5082447;28;20546;-67
2021/08/31 08:57:06;;;;;;;4.40;2.92;;;23.30;98.20;;;;;;5087726;28;20024;-65
2021/08/31 08:59:32;;;;;;;5.28;3.25;;;23.50;98.00;;;;;;5087105;28;20089;-65
2021/08/31 09:01:58;;;;;;;8.70;4.22;;;23.70;97.20;;;;;;5091459;28;20059;-64
2021/08/31 09:04:44;;;;;;;4.07;3.28;;;23.90;96.50;;;;;;5093315;28;20028;-63
2021/08/31 09:07:24;;;;;;;5.70;3.35;;;24.30;96.40;;;;;;5089806;28;20055;-65
2021/08/31 09:10:12;;;;;;;5.15;3.42;;;24.20;95.80;;;;;;5090406;28;20024;-68
2021/08/31 09:12:39;;;;;;;5.05;3.20;;;23.90;96.00;;;;;;5088931;28;20042;-68
2021/08/31 09:15:27;;;;;;;3.92;3.08;;;23.70;96.00;;;;;;5091409;28;20159;-68
2021/08/31 09:18:05;;;;;;;4.10;2.60;;;23.30;96.70;;;;;;5088200;28;20024;-67
2021/08/31 09:20:33;;;;;;;3.95;3.55;;;23.30;97.40;;;;;;5090587;28;20036;-68
2021/08/31 09:22:58;;;;;;;2.55;2.28;;;23.10;96.90;;;;;;5092742;28;20143;-67
2021/08/31 09:25:35;;;;;;;5.57;3.72;;;23.20;97.20;;;;;;5092476;28;20381;-68
2021/08/31 09:28:01;;;;;;;8.10;4.05;;;23.20;96.70;;;;;;5093007;28;20028;-67
2021/08/31 09:30:30;;;;;;;8.80;3.40;;;23.20;97.10;;;;;;5091283;28;20089;-67
2021/08/31 09:33:00;;;;;;;3.20;2.78;;;23.70;97.30;;;;;;5092908;28;20444;-66
2021/08/31 09:35:30;;;;;;;3.90;3.40;;;23.70;96.20;;;;;;5091175;28;20024;-67
2021/08/31 09:38:04;;;;;;;3.50;2.78;;;23.50;96.40;;;;;;5093255;28;20031;-67
2021/08/31 09:40:31;;;;;;;3.70;2.92;;;23.50;96.30;;;;;;5092941;28;20113;-70
2021/08/31 09:43:06;;;;;;;6.95;3.40;;;23.50;96.10;;;;;;5092160;28;20103;-67
2021/08/31 09:45:38;;;;;;;5.80;3.60;;;23.60;96.10;;;;;;5092295;28;20056;-67
2021/08/31 09:48:06;;;;;;;3.30;3.00;;;23.90;96.00;;;;;;5074971;28;20043;-66
2021/08/31 09:50:36;;;;;;;6.60;3.28;;;23.80;95.60;;;;;;5091387;28;20361;-66
2021/08/31 09:53:05;;;;;;;4.35;2.50;;;23.90;95.60;;;;;;5090780;28;20043;-67
2021/08/31 09:55:31;;;;;;;5.70;3.25;;;23.90;95.50;;;;;;5090445;28;20059;-70
2021/08/31 09:58:14;;;;;;;9.20;3.15;;;23.70;95.30;;;;;;5091991;28;20127;-68
2021/08/31 10:00:42;;;;;;;9.30;3.05;;;23.70;95.30;;;;;;5091772;28;20024;-67
2021/08/31 10:03:08;;;;;;;3.95;2.83;;;23.60;95.50;;;;;;5090638;28;20099;-67
2021/08/31 10:05:35;;;;;;;6.50;3.75;;;24.00;96.20;;;;;;5090039;28;20502;-67
2021/08/31 10:08:02;;;;;;;4.35;2.70;;;24.30;94.90;;;;;;5090738;28;20024;-66
2021/08/31 10:10:30;;;;;;;9.07;3.17;;;24.30;95.10;;;;;;5090449;28;20119;-65
2021/08/31 10:12:57;;;;;;;4.65;3.08;;;24.50;94.20;;;;;;5090752;28;20028;-65
2021/08/31 10:15:23;;;;;;;9.73;3.28;;;24.20;94.20;;;;;;5090364;28;20027;-65
2021/08/31 10:17:53;;;;;;;3.80;2.80;;;24.40;94.00;;;;;;5091303;28;20020;-65
2021/08/31 10:20:26;;;;;;;4.88;3.00;;;24.30;93.60;;;;;;5091463;28;20072;-66
2021/08/31 10:22:52;;;;;;;6.30;2.80;;;24.40;94.40;;;;;;5090805;28;20377;-66
2021/08/31 10:25:24;;;;;;;5.78;3.38;;;24.50;94.00;;;;;;5090091;28;20047;-66
2021/08/31 10:27:51;;;;;;;6.60;3.65;;;24.10;94.20;;;;;;5090708;28;20550;-66
2021/08/31 10:30:20;;;;;;;4.75;3.72;;;24.00;94.40;;;;;;5091238;28;20028;-67
2021/08/31 10:32:51;;;;;;;5.18;3.20;;;24.00;94.50;;;;;;5090666;28;20069;-67
2021/08/31 10:35:32;;;;;;;8.43;3.70;;;24.20;94.60;;;;;;5090288;28;20051;-67
2021/08/31 10:37:58;;;;;;;;;;;24.60;94.80;;;;;;5089683;28;20040;-68
2021/08/31 10:40:39;;;;;;;7.70;3.78;;;25.10;94.50;;;;;;5089628;28;20329;-68
2021/08/31 10:43:08;;;;;;;4.78;3.70;;;25.50;93.90;;;;;;5091181;28;20032;-67
2021/08/31 10:45:55;;;;;;;4.53;3.40;;;26.00;93.50;;;;;;5090562;28;20059;-71
2021/08/31 10:48:24;;;;;;;6.20;3.20;;;26.00;92.00;;;;;;5091492;28;20028;-66
2021/08/31 10:50:59;;;;;;;8.45;4.18;;;25.50;92.30;;;;;;5088966;28;20028;-66
2021/08/31 10:53:46;;;;;;;9.13;4.40;;;24.90;92.90;;;;;;5089268;28;20032;-66
2021/08/31 10:56:24;;;;;;;8.73;4.80;;;24.60;93.20;;;;;;5089656;28;20077;-67
2021/08/31 10:58:51;;;;;;;6.00;3.83;;;23.90;93.40;;;;;;5090546;28;20016;-67
2021/08/31 11:01:19;;;;;;;9.60;3.53;;;23.70;94.50;;;;;;5089326;28;20035;-67
2021/08/31 11:03:45;;;;;;;7.05;3.65;;;23.50;94.30;;;;;;5088883;28;20028;-65
2021/08/31 11:06:20;;;;;;;6.32;3.47;;;23.50;94.40;;;;;;5089809;28;20405;-67
2021/08/31 11:09:16;;;;;;;4.97;3.67;;;23.40;94.50;;;;;;5088874;28;20074;-67
2021/08/31 11:12:03;;;;;;;4.60;3.55;;;23.40;94.80;;;;;;5054402;28;20477;-66
2021/08/31 11:14:55;;;;;;;5.30;3.97;;;23.60;94.40;;;;;;5089280;28;20490;-66
2021/08/31 11:17:30;;;;;;;5.25;3.85;;;23.40;94.40;;;;;;5090713;28;20322;-66
2021/08/31 11:20:23;;;;;;;4.63;3.78;;;23.30;95.00;;;;;;5088052;28;20032;-66
2021/08/31 11:23:02;;;;;;;4.90;3.58;;;23.40;94.70;;;;;;5088033;28;20059;-66
2021/08/31 11:25:31;;;;;;;5.75;3.13;;;23.40;94.80;;;;;;5088937;28;20036;-66
2021/08/31 11:28:00;;;;;;;5.50;3.90;;;23.40;95.10;;;;;;5084284;28;20029;-68
2021/08/31 11:30:26;;;;;;;6.22;3.85;;;23.50;95.20;;;;;;5085818;28;20058;-65
2021/08/31 11:33:15;;;;;;;3.97;3.10;;;23.50;95.50;;;;;;5088271;28;20032;-66
2021/08/31 11:35:41;;;;;;;6.68;3.90;;;23.70;95.30;;;;;;5083246;28;20101;-58
2021/08/31 11:38:07;;;;;;;6.75;4.22;;;23.70;95.90;;;;;;5081138;28;20414;-59
2021/08/31 11:40:33;;;;;;;4.85;3.88;;;23.70;95.40;;;;;;5088000;28;20040;-58
2021/08/31 11:42:59;;;;;;;6.45;3.40;;;23.50;96.10;;;;;;5087641;28;20135;-58
2021/08/31 11:45:36;;;;;;;4.65;3.63;;;23.40;96.10;;;;;;5088859;28;20440;-58
2021/08/31 11:48:02;;;;;;;4.18;3.17;;;23.30;96.70;;;;;;5069944;28;20025;-58
2021/08/31 11:50:28;;;;;;;7.28;4.38;;;23.30;96.40;;;;;;5087381;28;20357;-59
2021/08/31 11:52:53;;;;;;;4.93;4.20;;;23.40;96.90;;;;;;5086880;28;20043;-61
2021/08/31 11:55:27;;;;;;;4.68;3.47;;;23.30;96.50;;;;;;5089129;28;20028;-59
2021/08/31 11:58:05;;;;;;;5.40;3.80;;;23.60;96.70;;;;;;5089432;28;20027;-58
2021/08/31 12:00:45;;;;;;;6.00;3.80;;;23.70;95.60;;;;;;5090223;28;20073;-58
2021/08/31 12:03:30;;;;;;;7.28;3.45;;;23.60;97.00;;;;;;5088355;28;20123;-59
2021/08/31 12:06:09;;;;;;;4.32;3.28;;;23.60;96.00;;;;;;5087594;28;20024;-58
2021/08/31 12:08:44;;;;;;;5.53;3.97;;;23.50;96.20;;;;;;5069800;28;20080;-58
2021/08/31 12:11:11;;;;;;;21.00;4.75;;;23.60;97.20;;;;;;5068462;28;20104;-57
2021/08/31 12:13:37;;;;;;;4.35;3.90;;;23.50;97.50;;;;;;5069948;28;20339;-58
2021/08/31 12:16:04;;;;;;;4.93;3.47;;;23.40;97.30;;;;;;5077076;28;20032;-58
2021/08/31 12:18:31;;;;;;;5.32;3.67;;;23.70;96.00;;;;;;5089223;28;20024;-58
2021/08/31 12:21:20;;;;;;;5.57;3.60;;;23.70;96.20;;;;;;5082508;28;20024;-59
2021/08/31 12:23:48;;;;;;;4.20;3.75;;;24.10;95.30;;;;;;5085616;28;20059;-60
2021/08/31 12:26:33;;;;;;;3.80;3.45;;;24.60;95.60;;;;;;5088819;28;20402;-58
2021/08/31 12:29:10;;;;;;;7.97;3.70;;;24.50;95.00;;;;;;5084304;28;20111;-57
2021/08/31 12:31:38;;;;;;;6.63;3.72;;;24.20;94.80;;;;;;5087654;28;20044;-58
2021/08/31 12:34:31;;;;;;;5.55;3.95;;;23.90;95.60;;;;;;5088763;28;20461;-58
2021/08/31 12:36:56;;;;;;;4.88;3.42;;;23.50;97.00;;;;;;5092172;28;20020;-59
2021/08/31 12:39:25;;;;;;;4.25;3.17;;;23.20;96.80;;;;;;5091263;28;20032;-59
2021/08/31 12:41:51;;;;;;;7.07;4.60;;;23.10;97.70;;;;;;5090713;28;20502;-58
2021/08/31 12:44:18;;;;;;;5.82;3.70;;;23.00;97.60;;;;;;5091216;28;20044;-58
2021/08/31 12:46:44;;;;;;;5.75;3.60;;;22.80;98.40;;;;;;5092223;28;20028;-58
2021/08/31 12:49:17;;;;;;;4.13;3.72;;;22.70;98.30;;;;;;5091948;28;20031;-58